NCAR-RAP Real-Time Weather Data

Output produced by METARs form (23 June 2018  19:27 UTC)
found at http://weather.rap.ucar.edu/surface/
 
RJBB 231920Z AUTO 02007KT 2400 R06R/P2000N R06L/P2000N -RA BR SCT005 SCT009 OVC011 20/20 Q1004 RMK A2966
RJBB 231908Z AUTO 03005KT 1800 -RA BR FEW005 SCT007 BKN011 20/20 Q1004 RMK A2966
RJBB 231906Z AUTO 03004KT 2700 -RA BR FEW005 SCT007 BKN011 20/20 Q1004 RMK A2966
RJBB 231900Z AUTO 05004KT 3200 -RA BR FEW005 BKN011 OVC017 20/20 Q1004 TEMPO FEW005 BKN008 BKN015
RJBB 231847Z AUTO 01004KT 340V060 5000 -RA BR FEW005 BKN009 OVC017 20/20 Q1004 RMK A2965
RJBB 231845Z AUTO 36004KT 340V040 5000 -RA BR FEW007 SCT009 OVC017 20/20 Q1004 RMK A2965
RJBB 231830Z AUTO 34007KT 3300 -RA BR FEW011 OVC017 20/20 Q1004 TEMPO FEW005 BKN008 BKN015
RJBB 231817Z AUTO 34006KT 4000 BR FEW011 OVC017 21/20 Q1004 RMK A2965
RJBB 231810Z AUTO 35007KT 2800 -RA BR FEW011 SCT016 OVC017 21/20 Q1004 RMK A2965
RJBB 231800Z AUTO 34007KT 2200 -RA BR FEW007 SCT011 OVC016 21/20 Q1004 TEMPO FEW005 BKN008 BKN015
RJBB 231745Z AUTO 34008KT 5000 BR FEW006 SCT012 OVC015 21/20 Q1004 RMK A2965
RJBB 231739Z AUTO 35008KT 4800 BR FEW006 SCT012 OVC015 21/20 Q1004 RMK A2965
RJBB 231735Z AUTO 35007KT 6000 FEW005 SCT009 BKN012 20/20 Q1004 RMK A2965
RJBB 231730Z AUTO 35007KT 4600 BR SCT005 BKN012 OVC017 20/20 Q1004 TEMPO FEW005 BKN008 BKN015
RJBB 231721Z AUTO 35005KT 5000 BR FEW005 SCT007 BKN011 21/20 Q1004 RMK A2965
RJBB 231710Z AUTO 35004KT 4500 -RA BR FEW005 BKN007 BKN009 21/20 Q1003 RMK A2964
RJBB 231707Z AUTO 35004KT 6000 -RA SCT005 SCT007 BKN009 21/20 Q1003 RMK A2964
RJBB 231700Z AUTO 35003KT 6000 -RA FEW007 SCT009 OVC016 21/20 Q1004 NOSIG
RJBB 231630Z AUTO 34003KT 8000 FEW008 OVC017 21/20 Q1004 NOSIG
RJBB 231600Z AUTO 32002KT 9000 -RA SCT008 BKN017 OVC019 21/20 Q1004 NOSIG
RJBB 231532Z AUTO 35003KT 310V020 9999 BKN008 OVC018 21/20 Q1005 RMK A2968
RJBB 231530Z AUTO 35003KT 310V020 9999 SCT008 OVC018 21/20 Q1004 NOSIG
RJBB 231500Z AUTO 01002KT 7000 FEW003 SCT050 BKN080 //////TCU 20/20 Q1004 NOSIG
RJBB 231430Z AUTO 32005KT 8000 FEW003 SCT080 BKN090 20/20 Q1005 BECMG 35004KT
RJBB 231400Z AUTO 28006KT 6000 -RA SCT046 BKN050 BKN060 20/20 Q1005 NOSIG
RJBB 231330Z 30006KT 9999 SHRA FEW015 BKN040 BKN070 21/20 Q1005 NOSIG
RJBB 231300Z 25003KT 9999 VCSH FEW015 SCT040 BKN070 21/20 Q1005 NOSIG
RJBB 231230Z 21003KT 9999 FEW010 BKN070 21/20 Q1005 NOSIG
RJBB 231200Z 18004KT 140V210 9999 FEW010 SCT030 BKN070 21/20 Q1005 NOSIG
RJBB 231130Z 26002KT 9999 FEW010 SCT020 BKN030 21/20 Q1005 NOSIG
RJBB 231100Z 30004KT 9999 FEW010 SCT020 BKN070 21/20 Q1005 NOSIG
RJBB 231030Z 32003KT 9999 FEW008 SCT045 BKN070 22/19 Q1005 NOSIG
RJBB 231000Z 34003KT 9999 FEW008 BKN045 BKN070 21/20 Q1005 NOSIG
RJBB 230930Z 33004KT 9999 FEW008 SCT020 BKN045 21/20 Q1005 NOSIG
RJBB 230900Z 34005KT 9999 FEW006 SCT030 BKN045 21/20 Q1005 NOSIG
RJBB 230830Z 03005KT 9999 FEW006 SCT030 BKN045 21/20 Q1005 NOSIG
RJBB 230800Z 04006KT 9999 FEW005 SCT030 BKN045 21/20 Q1004 NOSIG
RJBB 230730Z 36006KT 9999 FEW003 SCT020 BKN045 21/20 Q1004 NOSIG
RJBB 230700Z 01006KT 9999 FEW003 SCT010 BKN030 21/20 Q1004 NOSIG
RJBB 230630Z 01004KT 9000 -SHRA FEW003 SCT008 BKN025 21/21 Q1004 NOSIG
RJBB 230600Z 03003KT 360V100 5000 R06R/P2000N R06L/2000N -SHRA BR FEW003 SCT010 BKN025 20/19 Q1005 NOSIG
RJBB 230530Z 07013KT 9999 -SHRA FEW003 SCT010 BKN030 20/20 Q1003 NOSIG
RJBB 230500Z 06012KT 6000 -SHRA BR FEW001 SCT008 BKN030 20/19 Q1004 NOSIG
RJBB 230447Z 05011KT 4000 SHRA BR FEW001 SCT008 BKN020 20/20 Q1004 RMK 1ST001 3ST008 5CU020 A2965 P/FR
RJBB 230430Z 33013KT 3000 R06R/P2000N R06L/1600U SHRA BR FEW001 BKN010 BKN030 21/20 Q1004 BECMG 30012KT 4000 SHRA BR FEW003 BKN012 BKN025
RJBB 230400Z 32016KT 3000 R06R/2000N R06L/1200VP2000D SHRA BR FEW003 BKN008 BKN020 20/19 Q1004 BECMG 30012KT
RJBB 230338Z 29006KT 3000 R06R/1600N R06L/1700N RA BR FEW003 BKN010 BKN060 20/19 Q1004 RMK 1ST003 5ST010 6SC060 A2966
RJBB 230330Z 24005KT 190V290 4000 R06R/1900D R06L/1600VP2000D -RA BR FEW003 BKN010 BKN060 20/19 Q1004 NOSIG
RJBB 230318Z 22004KT 170V250 4500 R06R/P2000N R06L/P2000N -RA BR FEW010 SCT045 BKN060 21/19 Q1004 RMK 1CU010 3CU045 5SC060 A2966
RJBB 230300Z 25004KT 200V270 5000 -RA BR FEW015 SCT060 BKN080 21/20 Q1004 NOSIG
RJBB 230230Z 24004KT 6000 -RA BR FEW025 SCT060 BKN080 22/20 Q1004 NOSIG
RJBB 230200Z 24004KT 7000 -RA BR FEW025 SCT070 BKN090 22/20 Q1004 NOSIG
RJBB 230130Z 25006KT 7000 -RA BR FEW025 SCT070 BKN090 22/19 Q1004 NOSIG
RJBB 230100Z 20005KT 8000 FEW025 SCT070 BKN090 22/20 Q1004 NOSIG
RJBB 230030Z VRB01KT 9999 -RA FEW050 SCT080 BKN100 22/19 Q1003 BECMG 05005KT
RJBB 230000Z 32004KT 9999 VCSH FEW015 SCT080 BKN100 23/19 Q1003 BECMG 05005KT
RJBB 222330Z 36005KT 8000 FEW010 SCT080 BKN100 23/20 Q1004 NOSIG
RJBB 222300Z 04005KT 9999 -RA FEW010 SCT100 OVC120 22/20 Q1004 NOSIG
RJBB 222230Z VRB01KT 8000 -RA FEW030 SCT100 OVC120 21/20 Q1005 NOSIG
RJBB 222200Z VRB02KT 8000 -RA FEW030 SCT045 OVC120 21/20 Q1006 NOSIG
RJBB 222130Z 25003KT 9000 VCSH FEW030 SCT045 BKN120 21/20 Q1006 NOSIG
RJBB 222100Z 22005KT 9999 FEW030 SCT045 BKN120 20/20 Q1007 NOSIG
RJBB 222030Z AUTO 23003KT 160V260 9999 NSC 21/19 Q1007 NOSIG
RJBB 222000Z AUTO VRB01KT 9999 NSC 21/19 Q1007 NOSIG
RJBB 221930Z AUTO 18002KT 9999 NSC 21/19 Q1007 NOSIG
RJBB 221900Z AUTO 11003KT 9999 NSC 21/19 Q1007 NOSIG
RJBB 221830Z AUTO 09005KT 9999 NSC 22/19 Q1006 NOSIG
RJBB 221800Z AUTO 09005KT 9999 NSC 22/19 Q1007 NOSIG
RJBB 221730Z AUTO 10003KT 9999 NSC 22/19 Q1007 NOSIG
RJBB 221700Z AUTO 04004KT 9999 NSC 21/19 Q1007 NOSIG
RJBB 221630Z AUTO 14003KT 9999 NSC 22/20 Q1007 NOSIG
RJBB 221600Z AUTO 22003KT 9999 NSC 22/20 Q1008 NOSIG
RJBB 221530Z AUTO VRB02KT 9999 FEW005 SCT210 22/21 Q1008 NOSIG
RJBB 221500Z AUTO 22007KT 9999 NSC 22/20 Q1009 NOSIG
RJBB 221430Z AUTO 20011KT 9999 NSC 22/19 Q1009 NOSIG
RJBB 221400Z AUTO 21006KT 9999 NSC 22/20 Q1009 NOSIG
RJBB 221330Z 21010KT 9999 FEW050 SCT180 BKN/// 22/20 Q1009 NOSIG
RJBB 221300Z 22010KT 9999 FEW050 BKN/// 22/20 Q1009 NOSIG
RJBB 221230Z 22010KT 9999 FEW050 BKN/// 22/20 Q1009 NOSIG
RJBB 221200Z 22010KT 9999 FEW050 BKN/// 22/20 Q1009 NOSIG
RJBB 221130Z 21010KT 9999 FEW050 BKN/// 22/20 Q1009 NOSIG
RJBB 221100Z 22012KT 9999 FEW050 BKN/// 22/21 Q1009 NOSIG
RJBB 221030Z 22015KT 9999 FEW050 BKN/// 23/20 Q1009 NOSIG
RJBB 221000Z 22014KT 9999 FEW030 BKN/// 23/20 Q1009 NOSIG
RJBB 220930Z 22013KT 9999 FEW030 BKN/// 24/20 Q1008 NOSIG
RJBB 220900Z 22008KT 9999 FEW030 BKN/// 24/18 Q1008 NOSIG
RJBB 220830Z 25003KT 210V290 9999 FEW030 BKN/// 24/21 Q1008 NOSIG
RJBB 220800Z VRB01KT 9999 FEW030 BKN/// 28/13 Q1008 NOSIG
RJBB 220730Z 29003KT 9999 FEW030 BKN/// 28/15 Q1008 NOSIG
RJBB 220700Z 28003KT 9999 FEW030 BKN/// 28/15 Q1008 NOSIG
RJBB 220630Z 28003KT 9999 FEW030 BKN/// 28/14 Q1008 NOSIG
RJBB 220600Z 28003KT 250V320 9999 FEW030 BKN/// 28/17 Q1008 NOSIG
RJBB 220530Z 28004KT 9999 FEW025 BKN/// 25/21 Q1008 NOSIG
RJBB 220500Z 29003KT 9999 FEW025 BKN/// 25/20 Q1008 NOSIG
RJBB 220430Z 34004KT 9999 FEW025 BKN/// 27/19 Q1008 NOSIG
RJBB 220400Z 35005KT 9999 FEW020 BKN/// 26/19 Q1009 NOSIG
RJBB 220330Z 34004KT 310V020 9999 FEW020 BKN/// 26/19 Q1009 NOSIG
RJBB 220300Z 34005KT 9999 FEW020 BKN/// 27/20 Q1010 NOSIG
RJBB 220230Z 34006KT 9999 FEW020 BKN/// 26/20 Q1010 BECMG 31006KT
RJBB 220200Z 33006KT 9999 FEW020 BKN/// 25/20 Q1010 BECMG 31005KT
RJBB 220130Z 33005KT 280V360 9999 FEW020 BKN/// 25/19 Q1010 BECMG 30005KT
RJBB 220100Z 30005KT 9999 FEW020 BKN/// 25/20 Q1010 NOSIG
RJBB 220030Z 25003KT 180V300 9999 FEW015 BKN/// 24/20 Q1010 NOSIG
RJBB 220000Z VRB02KT 9000 FEW015 BKN/// 23/20 Q1010 NOSIG
RJBB 212330Z 33003KT 300V010 8000 FEW008 BKN/// 22/20 Q1010 NOSIG
RJBB 212300Z 16003KT 130V190 8000 FEW008 BKN/// 21/20 Q1010 NOSIG
RJBB 212230Z 16003KT 130V200 8000 FEW006 BKN/// 21/20 Q1010 NOSIG
RJBB 212200Z VRB02KT 8000 FEW003 BKN/// 20/19 Q1010 NOSIG
RJBB 212142Z VRB02KT 8000 R06R/P2000N R06L/P2000N FEW003 BKN008 BKN/// 20/19 Q1010 RMK 1ST003 5ST008 A2983
RJBB 212130Z 05003KT 8000 FEW008 BKN/// 20/19 Q1010 NOSIG
RJBB 212100Z VRB01KT 8000 FEW015 BKN/// 20/19 Q1010 NOSIG
RJBB 212030Z AUTO 00000KT 3500 BR NSC 19/19 Q1009 BECMG TL2100 9000 NSW
RJBB 212006Z AUTO VRB02KT 2700 BR NSC 19/19 Q1009 RMK A2982
RJBB 212000Z AUTO 36003KT 3600 BR NSC 19/19 Q1009 BECMG TL2100 9000 NSW
RJBB 211951Z AUTO 02002KT 4800 BR NSC 19/19 Q1009 RMK A2981
RJBB 211937Z AUTO 35004KT 2800 BR NSC 19/19 Q1009 RMK A2981
RJBB 211930Z AUTO 36004KT 2300 BR NSC 19/18 Q1009 BECMG 8000 NSW
RJBB 211926Z AUTO 01004KT 2400 BR NSC 19/18 Q1009 RMK A2980
RJBB 211920Z AUTO 02004KT 2300 BR NSC 20/19 Q1009 RMK A2980
RJBB 211915Z AUTO 02003KT 3100 BR NSC 20/19 Q1009 RMK A2980
RJBB 211900Z AUTO 03002KT 9999 NSC 20/19 Q1009 NOSIG
RJBB 211830Z AUTO 00000KT 9999 NSC 20/19 Q1008 NOSIG
RJBB 211800Z AUTO 14002KT 9999 NSC 20/19 Q1008 NOSIG
RJBB 211730Z AUTO 15003KT 9000 NSC 20/19 Q1008 NOSIG
RJBB 211700Z AUTO 10003KT 7000 NSC 21/20 Q1008 NOSIG
RJBB 211630Z AUTO 08004KT 6000 NSC 21/20 Q1008 NOSIG
RJBB 211618Z AUTO 07004KT 9999 FEW045 20/20 Q1008 RMK A2979
RJBB 211600Z AUTO 07005KT 9999 BKN046 BKN100 20/20 Q1008 NOSIG
RJBB 211530Z AUTO VRB01KT 9999 SCT043 BKN050 OVC060 21/21 Q1008 NOSIG
RJBB 211500Z AUTO 13002KT 9999 FEW040 BKN050 OVC080 21/20 Q1008 NOSIG
RJBB 211430Z AUTO VRB01KT 9999 BKN050 OVC070 22/20 Q1008 NOSIG
RJBB 211400Z AUTO 00000KT 9999 FEW045 BKN049 BKN060 22/19 Q1008 NOSIG
RJBB 211330Z 22004KT 9999 FEW030 SCT040 BKN/// 22/20 Q1008 NOSIG
RJBB 211300Z 23004KT 9999 FEW030 BKN/// 22/20 Q1008 NOSIG
RJBB 211230Z 23006KT 9999 FEW030 SCT040 BKN/// 22/20 Q1008 NOSIG
RJBB 211200Z 23006KT CAVOK 22/20 Q1007 NOSIG
RJBB 211130Z 22008KT CAVOK 21/20 Q1007 NOSIG
RJBB 211100Z 22009KT CAVOK 22/20 Q1007 NOSIG
RJBB 211030Z 22010KT CAVOK 22/20 Q1006 NOSIG
RJBB 211000Z 22008KT 9999 FEW025 BKN/// 22/19 Q1006 NOSIG
RJBB 210930Z 23008KT 9999 FEW025 BKN/// 23/19 Q1006 NOSIG
RJBB 210900Z 24010KT 9999 FEW025 BKN/// 24/18 Q1006 NOSIG
RJBB 210830Z 25007KT 9999 FEW025 BKN/// 24/20 Q1005 NOSIG
RJBB 210800Z 26005KT 9999 FEW025 BKN/// 26/18 Q1005 NOSIG
RJBB 210730Z 27004KT 9999 FEW025 BKN/// 25/18 Q1005 NOSIG